sensor_id;sensor_type;location;lat;lon;timestamp;temperature;humidity
53776;DHT22;44276;49.534;6.378;2022-08-01T00:01:31;17.40;99.90
53776;DHT22;44276;49.534;6.378;2022-08-01T00:03:59;17.30;99.90
53776;DHT22;44276;49.534;6.378;2022-08-01T00:06:27;17.30;99.90
53776;DHT22;44276;49.534;6.378;2022-08-01T00:08:56;17.30;99.90
53776;DHT22;44276;49.534;6.378;2022-08-01T00:11:24;17.30;99.90
53776;DHT22;44276;49.534;6.378;2022-08-01T00:13:53;17.30;99.90
53776;DHT22;44276;49.534;6.378;2022-08-01T00:16:21;17.10;99.90
53776;DHT22;44276;49.534;6.378;2022-08-01T00:18:51;17.10;99.90
53776;DHT22;44276;49.534;6.378;2022-08-01T00:21:20;17.00;99.90
53776;DHT22;44276;49.534;6.378;2022-08-01T00:23:48;16.90;99.90
53776;DHT22;44276;49.534;6.378;2022-08-01T00:26:16;16.80;99.90
53776;DHT22;44276;49.534;6.378;2022-08-01T00:28:45;16.70;99.90
53776;DHT22;44276;49.534;6.378;2022-08-01T00:31:13;16.70;99.90
53776;DHT22;44276;49.534;6.378;2022-08-01T00:33:41;16.60;99.90
53776;DHT22;44276;49.534;6.378;2022-08-01T00:36:11;16.40;99.90
53776;DHT22;44276;49.534;6.378;2022-08-01T00:38:39;16.30;99.90
53776;DHT22;44276;49.534;6.378;2022-08-01T00:41:07;16.30;99.90
53776;DHT22;44276;49.534;6.378;2022-08-01T00:43:35;16.30;99.90
53776;DHT22;44276;49.534;6.378;2022-08-01T00:46:03;16.30;99.90
53776;DHT22;44276;49.534;6.378;2022-08-01T00:48:31;16.40;99.90
53776;DHT22;44276;49.534;6.378;2022-08-01T00:50:59;16.30;99.90
53776;DHT22;44276;49.534;6.378;2022-08-01T00:53:29;16.30;99.90
53776;DHT22;44276;49.534;6.378;2022-08-01T00:56:18;16.40;99.90
53776;DHT22;44276;49.534;6.378;2022-08-01T00:58:47;16.40;99.90
53776;DHT22;44276;49.534;6.378;2022-08-01T01:01:16;16.30;99.90
53776;DHT22;44276;49.534;6.378;2022-08-01T01:03:44;16.20;99.90
53776;DHT22;44276;49.534;6.378;2022-08-01T01:06:41;16.20;99.90
53776;DHT22;44276;49.534;6.378;2022-08-01T01:09:24;16.20;99.90
53776;DHT22;44276;49.534;6.378;2022-08-01T01:12:06;16.10;99.90
53776;DHT22;44276;49.534;6.378;2022-08-01T01:14:46;16.00;99.90
53776;DHT22;44276;49.534;6.378;2022-08-01T01:17:27;15.90;99.90
53776;DHT22;44276;49.534;6.378;2022-08-01T01:20:18;15.90;99.90
53776;DHT22;44276;49.534;6.378;2022-08-01T01:22:59;15.90;99.90
53776;DHT22;44276;49.534;6.378;2022-08-01T01:26:09;15.80;99.90
53776;DHT22;44276;49.534;6.378;2022-08-01T01:29:00;15.90;99.90
53776;DHT22;44276;49.534;6.378;2022-08-01T01:31:36;15.80;99.90
53776;DHT22;44276;49.534;6.378;2022-08-01T01:34:11;15.70;99.90
53776;DHT22;44276;49.534;6.378;2022-08-01T01:36:43;15.60;99.90
53776;DHT22;44276;49.534;6.378;2022-08-01T01:39:13;15.60;99.90
53776;DHT22;44276;49.534;6.378;2022-08-01T01:41:44;15.70;99.90
53776;DHT22;44276;49.534;6.378;2022-08-01T01:44:18;15.80;99.90
53776;DHT22;44276;49.534;6.378;2022-08-01T01:46:47;15.80;99.90
53776;DHT22;44276;49.534;6.378;2022-08-01T01:49:19;15.80;99.90
53776;DHT22;44276;49.534;6.378;2022-08-01T01:51:54;15.70;99.90
53776;DHT22;44276;49.534;6.378;2022-08-01T01:54:31;15.70;99.90
53776;DHT22;44276;49.534;6.378;2022-08-01T01:57:03;15.60;99.90
53776;DHT22;44276;49.534;6.378;2022-08-01T01:59:36;15.50;99.90
53776;DHT22;44276;49.534;6.378;2022-08-01T02:02:07;15.40;99.90
53776;DHT22;44276;49.534;6.378;2022-08-01T02:04:41;15.40;99.90
53776;DHT22;44276;49.534;6.378;2022-08-01T02:07:14;15.40;99.90
53776;DHT22;44276;49.534;6.378;2022-08-01T02:09:46;15.30;99.90
53776;DHT22;44276;49.534;6.378;2022-08-01T02:12:16;15.30;99.90
53776;DHT22;44276;49.534;6.378;2022-08-01T02:14:52;15.30;99.90
53776;DHT22;44276;49.534;6.378;2022-08-01T02:17:24;15.20;99.90
53776;DHT22;44276;49.534;6.378;2022-08-01T02:19:55;15.30;99.90
53776;DHT22;44276;49.534;6.378;2022-08-01T02:22:27;15.30;99.90
53776;DHT22;44276;49.534;6.378;2022-08-01T02:25:02;15.30;99.90
53776;DHT22;44276;49.534;6.378;2022-08-01T02:27:36;15.30;99.90
53776;DHT22;44276;49.534;6.378;2022-08-01T02:30:13;15.20;99.90
53776;DHT22;44276;49.534;6.378;2022-08-01T02:32:51;15.20;99.90
53776;DHT22;44276;49.534;6.378;2022-08-01T02:35:28;15.20;99.90
53776;DHT22;44276;49.534;6.378;2022-08-01T02:38:23;15.20;99.90
53776;DHT22;44276;49.534;6.378;2022-08-01T02:40:55;15.30;99.90
53776;DHT22;44276;49.534;6.378;2022-08-01T02:43:28;15.40;99.90
53776;DHT22;44276;49.534;6.378;2022-08-01T02:46:03;15.30;99.90
53776;DHT22;44276;49.534;6.378;2022-08-01T02:48:36;15.10;99.90
53776;DHT22;44276;49.534;6.378;2022-08-01T02:51:08;14.90;99.90
53776;DHT22;44276;49.534;6.378;2022-08-01T02:53:39;14.90;99.90
53776;DHT22;44276;49.534;6.378;2022-08-01T02:56:13;14.70;99.90
53776;DHT22;44276;49.534;6.378;2022-08-01T02:58:43;14.60;99.90
53776;DHT22;44276;49.534;6.378;2022-08-01T03:01:15;14.70;99.90
53776;DHT22;44276;49.534;6.378;2022-08-01T03:03:46;14.80;99.90
53776;DHT22;44276;49.534;6.378;2022-08-01T03:06:15;14.80;99.90
53776;DHT22;44276;49.534;6.378;2022-08-01T03:08:45;14.80;99.90
53776;DHT22;44276;49.534;6.378;2022-08-01T03:11:15;14.80;99.90
53776;DHT22;44276;49.534;6.378;2022-08-01T03:13:47;14.70;99.90
53776;DHT22;44276;49.534;6.378;2022-08-01T03:16:18;14.60;99.90
53776;DHT22;44276;49.534;6.378;2022-08-01T03:18:49;14.60;99.90
53776;DHT22;44276;49.534;6.378;2022-08-01T03:21:22;14.50;99.90
53776;DHT22;44276;49.534;6.378;2022-08-01T03:23:51;14.50;99.90
53776;DHT22;44276;49.534;6.378;2022-08-01T03:26:26;14.40;99.90
53776;DHT22;44276;49.534;6.378;2022-08-01T03:28:59;14.50;99.90
53776;DHT22;44276;49.534;6.378;2022-08-01T03:31:35;14.50;99.90
53776;DHT22;44276;49.534;6.378;2022-08-01T03:34:05;14.50;99.90
53776;DHT22;44276;49.534;6.378;2022-08-01T03:36:35;14.50;99.90
53776;DHT22;44276;49.534;6.378;2022-08-01T03:39:11;14.50;99.90
53776;DHT22;44276;49.534;6.378;2022-08-01T03:41:45;14.50;99.90
53776;DHT22;44276;49.534;6.378;2022-08-01T03:44:25;14.50;99.90
53776;DHT22;44276;49.534;6.378;2022-08-01T03:47:00;14.50;99.90
53776;DHT22;44276;49.534;6.378;2022-08-01T03:49:33;14.50;99.90
53776;DHT22;44276;49.534;6.378;2022-08-01T03:52:07;14.50;99.90
53776;DHT22;44276;49.534;6.378;2022-08-01T03:54:40;14.50;99.90
53776;DHT22;44276;49.534;6.378;2022-08-01T03:57:14;14.50;99.90
53776;DHT22;44276;49.534;6.378;2022-08-01T04:00:04;14.40;99.90
53776;DHT22;44276;49.534;6.378;2022-08-01T04:02:37;14.30;99.90
53776;DHT22;44276;49.534;6.378;2022-08-01T04:05:07;14.20;99.90
53776;DHT22;44276;49.534;6.378;2022-08-01T04:07:36;14.10;99.90
53776;DHT22;44276;49.534;6.378;2022-08-01T04:10:06;14.20;99.90
53776;DHT22;44276;49.534;6.378;2022-08-01T04:12:35;14.10;99.90
53776;DHT22;44276;49.534;6.378;2022-08-01T04:15:04;14.20;99.90
53776;DHT22;44276;49.534;6.378;2022-08-01T04:17:33;14.10;99.90
53776;DHT22;44276;49.534;6.378;2022-08-01T04:20:03;14.20;99.90
53776;DHT22;44276;49.534;6.378;2022-08-01T04:22:32;14.10;99.90
53776;DHT22;44276;49.534;6.378;2022-08-01T04:25:07;14.20;99.90
53776;DHT22;44276;49.534;6.378;2022-08-01T04:27:44;14.40;99.90
53776;DHT22;44276;49.534;6.378;2022-08-01T04:30:19;14.50;99.90
53776;DHT22;44276;49.534;6.378;2022-08-01T04:32:52;14.50;99.90
53776;DHT22;44276;49.534;6.378;2022-08-01T04:35:24;14.60;99.90
53776;DHT22;44276;49.534;6.378;2022-08-01T04:38:20;14.70;99.90
53776;DHT22;44276;49.534;6.378;2022-08-01T04:40:50;14.60;99.90
53776;DHT22;44276;49.534;6.378;2022-08-01T04:43:21;14.60;99.90
53776;DHT22;44276;49.534;6.378;2022-08-01T04:45:51;14.60;99.90
53776;DHT22;44276;49.534;6.378;2022-08-01T04:48:21;14.70;99.90
53776;DHT22;44276;49.534;6.378;2022-08-01T04:50:52;14.80;99.90
53776;DHT22;44276;49.534;6.378;2022-08-01T04:53:21;14.90;99.90
53776;DHT22;44276;49.534;6.378;2022-08-01T04:55:49;15.00;99.90
53776;DHT22;44276;49.534;6.378;2022-08-01T04:58:18;15.10;99.90
53776;DHT22;44276;49.534;6.378;2022-08-01T05:00:46;15.20;99.90
53776;DHT22;44276;49.534;6.378;2022-08-01T05:03:16;15.30;99.90
53776;DHT22;44276;49.534;6.378;2022-08-01T05:05:44;15.50;99.90
53776;DHT22;44276;49.534;6.378;2022-08-01T05:08:14;15.60;99.90
53776;DHT22;44276;49.534;6.378;2022-08-01T05:10:43;15.70;99.90
53776;DHT22;44276;49.534;6.378;2022-08-01T05:13:12;15.70;99.90
53776;DHT22;44276;49.534;6.378;2022-08-01T05:15:40;15.90;99.90
53776;DHT22;44276;49.534;6.378;2022-08-01T05:18:08;16.00;99.90
53776;DHT22;44276;49.534;6.378;2022-08-01T05:20:37;16.10;99.90
53776;DHT22;44276;49.534;6.378;2022-08-01T05:23:05;16.40;99.90
53776;DHT22;44276;49.534;6.378;2022-08-01T05:25:57;17.30;99.90
53776;DHT22;44276;49.534;6.378;2022-08-01T05:28:27;19.10;99.90
53776;DHT22;44276;49.534;6.378;2022-08-01T05:30:55;20.80;99.90
53776;DHT22;44276;49.534;6.378;2022-08-01T05:33:23;22.30;99.90
53776;DHT22;44276;49.534;6.378;2022-08-01T05:35:51;23.50;99.90
53776;DHT22;44276;49.534;6.378;2022-08-01T05:38:22;24.20;99.90
53776;DHT22;44276;49.534;6.378;2022-08-01T05:40:50;25.10;99.90
53776;DHT22;44276;49.534;6.378;2022-08-01T05:43:19;25.90;99.90
53776;DHT22;44276;49.534;6.378;2022-08-01T05:45:54;26.80;93.80
53776;DHT22;44276;49.534;6.378;2022-08-01T05:48:22;27.70;84.10
53776;DHT22;44276;49.534;6.378;2022-08-01T05:50:50;28.60;72.40
53776;DHT22;44276;49.534;6.378;2022-08-01T05:53:24;29.20;64.40
53776;DHT22;44276;49.534;6.378;2022-08-01T05:55:52;29.20;59.30
53776;DHT22;44276;49.534;6.378;2022-08-01T05:58:22;28.80;60.90
53776;DHT22;44276;49.534;6.378;2022-08-01T06:00:50;28.90;58.40
53776;DHT22;44276;49.534;6.378;2022-08-01T06:03:19;29.30;55.20
53776;DHT22;44276;49.534;6.378;2022-08-01T06:05:47;29.20;52.90
53776;DHT22;44276;49.534;6.378;2022-08-01T06:08:15;29.40;52.20
53776;DHT22;44276;49.534;6.378;2022-08-01T06:10:43;29.60;50.70
53776;DHT22;44276;49.534;6.378;2022-08-01T06:13:11;29.30;50.70
53776;DHT22;44276;49.534;6.378;2022-08-01T06:15:41;28.30;52.30
53776;DHT22;44276;49.534;6.378;2022-08-01T06:18:10;27.20;59.20
53776;DHT22;44276;49.534;6.378;2022-08-01T06:20:38;27.30;61.10
53776;DHT22;44276;49.534;6.378;2022-08-01T06:23:06;28.40;55.50
53776;DHT22;44276;49.534;6.378;2022-08-01T06:25:55;29.70;48.10
53776;DHT22;44276;49.534;6.378;2022-08-01T06:28:24;30.40;42.40
53776;DHT22;44276;49.534;6.378;2022-08-01T06:30:54;29.20;44.00
53776;DHT22;44276;49.534;6.378;2022-08-01T06:33:23;27.40;51.30
53776;DHT22;44276;49.534;6.378;2022-08-01T06:35:51;26.20;63.10
53776;DHT22;44276;49.534;6.378;2022-08-01T06:38:19;25.20;75.80
53776;DHT22;44276;49.534;6.378;2022-08-01T06:40:47;24.10;93.60
53776;DHT22;44276;49.534;6.378;2022-08-01T06:43:15;23.50;99.90
53776;DHT22;44276;49.534;6.378;2022-08-01T06:45:45;23.00;99.90
53776;DHT22;44276;49.534;6.378;2022-08-01T06:48:14;22.70;99.90
53776;DHT22;44276;49.534;6.378;2022-08-01T06:50:43;22.50;99.90
53776;DHT22;44276;49.534;6.378;2022-08-01T06:53:11;22.40;99.90
53776;DHT22;44276;49.534;6.378;2022-08-01T06:55:39;22.40;99.90
53776;DHT22;44276;49.534;6.378;2022-08-01T06:58:08;22.30;99.90
53776;DHT22;44276;49.534;6.378;2022-08-01T07:00:36;22.30;99.90
53776;DHT22;44276;49.534;6.378;2022-08-01T07:03:05;22.30;99.90
53776;DHT22;44276;49.534;6.378;2022-08-01T07:05:35;22.30;99.90
53776;DHT22;44276;49.534;6.378;2022-08-01T07:08:03;22.10;99.90
53776;DHT22;44276;49.534;6.378;2022-08-01T07:10:32;22.20;99.90
53776;DHT22;44276;49.534;6.378;2022-08-01T07:13:00;22.30;99.90
53776;DHT22;44276;49.534;6.378;2022-08-01T07:15:28;22.10;99.90
53776;DHT22;44276;49.534;6.378;2022-08-01T07:17:56;22.30;99.90
53776;DHT22;44276;49.534;6.378;2022-08-01T07:20:28;22.60;99.90
53776;DHT22;44276;49.534;6.378;2022-08-01T07:23:05;22.90;99.90
53776;DHT22;44276;49.534;6.378;2022-08-01T07:25:33;23.20;99.90
53776;DHT22;44276;49.534;6.378;2022-08-01T07:28:02;23.30;99.90
53776;DHT22;44276;49.534;6.378;2022-08-01T07:30:30;23.80;99.90
53776;DHT22;44276;49.534;6.378;2022-08-01T07:32:58;24.10;99.90
53776;DHT22;44276;49.534;6.378;2022-08-01T07:35:28;24.50;97.90
53776;DHT22;44276;49.534;6.378;2022-08-01T07:37:56;24.70;96.00
53776;DHT22;44276;49.534;6.378;2022-08-01T07:40:25;24.60;96.40
53776;DHT22;44276;49.534;6.378;2022-08-01T07:42:54;24.80;94.00
53776;DHT22;44276;49.534;6.378;2022-08-01T07:45:22;25.20;92.30
53776;DHT22;44276;49.534;6.378;2022-08-01T07:47:50;25.40;87.30
53776;DHT22;44276;49.534;6.378;2022-08-01T07:50:19;25.20;88.80
53776;DHT22;44276;49.534;6.378;2022-08-01T07:52:47;25.20;88.10
53776;DHT22;44276;49.534;6.378;2022-08-01T07:55:15;25.50;84.10
53776;DHT22;44276;49.534;6.378;2022-08-01T07:57:45;25.80;80.90
53776;DHT22;44276;49.534;6.378;2022-08-01T08:00:13;26.30;75.20
53776;DHT22;44276;49.534;6.378;2022-08-01T08:02:42;26.30;71.30
53776;DHT22;44276;49.534;6.378;2022-08-01T08:05:10;27.10;68.60
53776;DHT22;44276;49.534;6.378;2022-08-01T08:07:39;27.80;61.20
53776;DHT22;44276;49.534;6.378;2022-08-01T08:10:08;27.70;59.50
53776;DHT22;44276;49.534;6.378;2022-08-01T08:12:37;27.40;60.30
53776;DHT22;44276;49.534;6.378;2022-08-01T08:15:08;27.20;60.60
53776;DHT22;44276;49.534;6.378;2022-08-01T08:17:36;27.10;60.50
53776;DHT22;44276;49.534;6.378;2022-08-01T08:20:06;26.90;62.20
53776;DHT22;44276;49.534;6.378;2022-08-01T08:22:36;27.00;61.40
53776;DHT22;44276;49.534;6.378;2022-08-01T08:25:06;26.90;60.30
53776;DHT22;44276;49.534;6.378;2022-08-01T08:27:37;26.80;61.40
53776;DHT22;44276;49.534;6.378;2022-08-01T08:30:08;26.50;62.50
53776;DHT22;44276;49.534;6.378;2022-08-01T08:32:38;26.20;64.30
53776;DHT22;44276;49.534;6.378;2022-08-01T08:35:08;26.50;63.50
53776;DHT22;44276;49.534;6.378;2022-08-01T08:37:38;27.00;61.40
53776;DHT22;44276;49.534;6.378;2022-08-01T08:40:14;27.60;58.20
53776;DHT22;44276;49.534;6.378;2022-08-01T08:42:44;28.10;54.20
53776;DHT22;44276;49.534;6.378;2022-08-01T08:45:18;28.10;52.50
53776;DHT22;44276;49.534;6.378;2022-08-01T08:48:06;27.50;54.10
53776;DHT22;44276;49.534;6.378;2022-08-01T08:50:36;27.50;55.10
53776;DHT22;44276;49.534;6.378;2022-08-01T08:53:05;27.90;53.00
53776;DHT22;44276;49.534;6.378;2022-08-01T08:55:36;28.20;51.00
53776;DHT22;44276;49.534;6.378;2022-08-01T08:58:24;28.90;47.30
53776;DHT22;44276;49.534;6.378;2022-08-01T09:00:59;29.40;44.10
53776;DHT22;44276;49.534;6.378;2022-08-01T09:03:28;29.40;43.30
53776;DHT22;44276;49.534;6.378;2022-08-01T09:05:56;28.90;44.20
53776;DHT22;44276;49.534;6.378;2022-08-01T09:08:24;28.30;46.10
53776;DHT22;44276;49.534;6.378;2022-08-01T09:10:53;28.10;47.70
53776;DHT22;44276;49.534;6.378;2022-08-01T09:13:21;28.10;47.80
53776;DHT22;44276;49.534;6.378;2022-08-01T09:15:51;28.40;48.20
53776;DHT22;44276;49.534;6.378;2022-08-01T09:18:33;28.40;47.00
53776;DHT22;44276;49.534;6.378;2022-08-01T09:21:11;28.30;47.90
53776;DHT22;44276;49.534;6.378;2022-08-01T09:23:43;28.40;46.70
53776;DHT22;44276;49.534;6.378;2022-08-01T09:26:22;28.80;45.90
53776;DHT22;44276;49.534;6.378;2022-08-01T09:28:56;29.20;44.40
53776;DHT22;44276;49.534;6.378;2022-08-01T09:31:27;29.10;43.90
53776;DHT22;44276;49.534;6.378;2022-08-01T09:34:05;28.70;43.60
53776;DHT22;44276;49.534;6.378;2022-08-01T09:36:47;28.70;45.30
53776;DHT22;44276;49.534;6.378;2022-08-01T09:39:34;29.30;42.50
53776;DHT22;44276;49.534;6.378;2022-08-01T09:42:19;30.00;39.30
53776;DHT22;44276;49.534;6.378;2022-08-01T09:44:55;30.70;38.30
53776;DHT22;44276;49.534;6.378;2022-08-01T09:47:36;31.50;35.40
53776;DHT22;44276;49.534;6.378;2022-08-01T09:50:07;31.70;32.80
53776;DHT22;44276;49.534;6.378;2022-08-01T09:52:37;31.00;33.90
53776;DHT22;44276;49.534;6.378;2022-08-01T09:55:08;31.30;33.40
53776;DHT22;44276;49.534;6.378;2022-08-01T09:57:38;31.50;32.40
53776;DHT22;44276;49.534;6.378;2022-08-01T10:00:17;31.20;33.40
53776;DHT22;44276;49.534;6.378;2022-08-01T10:03:26;31.10;33.50
53776;DHT22;44276;49.534;6.378;2022-08-01T10:05:58;31.00;34.00
53776;DHT22;44276;49.534;6.378;2022-08-01T10:08:27;30.90;33.60
53776;DHT22;44276;49.534;6.378;2022-08-01T10:11:12;30.60;34.20
53776;DHT22;44276;49.534;6.378;2022-08-01T10:13:42;29.90;36.10
53776;DHT22;44276;49.534;6.378;2022-08-01T10:16:12;29.20;38.00
53776;DHT22;44276;49.534;6.378;2022-08-01T10:18:41;28.70;38.70
53776;DHT22;44276;49.534;6.378;2022-08-01T10:21:16;28.30;39.90
53776;DHT22;44276;49.534;6.378;2022-08-01T10:24:07;27.90;41.80
53776;DHT22;44276;49.534;6.378;2022-08-01T10:26:38;27.20;45.50
53776;DHT22;44276;49.534;6.378;2022-08-01T10:29:09;26.80;47.40
53776;DHT22;44276;49.534;6.378;2022-08-01T10:31:58;26.90;48.40
53776;DHT22;44276;49.534;6.378;2022-08-01T10:34:31;27.10;46.40
53776;DHT22;44276;49.534;6.378;2022-08-01T10:37:05;27.10;46.70
53776;DHT22;44276;49.534;6.378;2022-08-01T10:39:35;27.00;48.40
53776;DHT22;44276;49.534;6.378;2022-08-01T10:42:04;26.60;52.50
53776;DHT22;44276;49.534;6.378;2022-08-01T10:44:41;26.10;55.60
53776;DHT22;44276;49.534;6.378;2022-08-01T10:47:17;26.10;58.70
53776;DHT22;44276;49.534;6.378;2022-08-01T10:50:21;26.20;57.10
53776;DHT22;44276;49.534;6.378;2022-08-01T10:53:10;26.10;58.60
53776;DHT22;44276;49.534;6.378;2022-08-01T10:55:51;26.30;56.40
53776;DHT22;44276;49.534;6.378;2022-08-01T10:58:30;26.80;53.30
53776;DHT22;44276;49.534;6.378;2022-08-01T11:01:21;27.20;51.30
53776;DHT22;44276;49.534;6.378;2022-08-01T11:04:12;27.60;49.30
53776;DHT22;44276;49.534;6.378;2022-08-01T11:06:52;27.80;46.60
53776;DHT22;44276;49.534;6.378;2022-08-01T11:09:42;27.40;46.60
53776;DHT22;44276;49.534;6.378;2022-08-01T11:12:18;27.30;48.20
53776;DHT22;44276;49.534;6.378;2022-08-01T11:15:16;27.40;47.50
53776;DHT22;44276;49.534;6.378;2022-08-01T11:18:32;27.40;46.90
53776;DHT22;44276;49.534;6.378;2022-08-01T11:21:03;27.50;47.10
53776;DHT22;44276;49.534;6.378;2022-08-01T11:23:52;27.80;45.90
53776;DHT22;44276;49.534;6.378;2022-08-01T11:26:24;28.10;44.00
53776;DHT22;44276;49.534;6.378;2022-08-01T11:29:14;28.70;41.80
53776;DHT22;44276;49.534;6.378;2022-08-01T11:31:49;29.40;40.20
53776;DHT22;44276;49.534;6.378;2022-08-01T11:34:18;29.50;38.70
53776;DHT22;44276;49.534;6.378;2022-08-01T11:36:48;29.10;38.40
53776;DHT22;44276;49.534;6.378;2022-08-01T11:39:25;28.70;40.00
53776;DHT22;44276;49.534;6.378;2022-08-01T11:42:18;27.90;42.30
53776;DHT22;44276;49.534;6.378;2022-08-01T11:44:49;27.30;45.90
53776;DHT22;44276;49.534;6.378;2022-08-01T11:47:18;26.60;49.70
53776;DHT22;44276;49.534;6.378;2022-08-01T11:50:30;26.00;57.10
53776;DHT22;44276;49.534;6.378;2022-08-01T11:53:00;25.60;62.20
53776;DHT22;44276;49.534;6.378;2022-08-01T11:55:31;25.30;64.90
53776;DHT22;44276;49.534;6.378;2022-08-01T11:58:04;25.00;69.90
53776;DHT22;44276;49.534;6.378;2022-08-01T12:00:50;24.70;73.90
53776;DHT22;44276;49.534;6.378;2022-08-01T12:03:25;24.70;76.30
53776;DHT22;44276;49.534;6.378;2022-08-01T12:06:01;24.70;77.30
53776;DHT22;44276;49.534;6.378;2022-08-01T12:08:32;24.80;77.20
53776;DHT22;44276;49.534;6.378;2022-08-01T12:11:04;24.90;75.00
53776;DHT22;44276;49.534;6.378;2022-08-01T12:13:40;25.10;73.10
53776;DHT22;44276;49.534;6.378;2022-08-01T12:16:10;25.30;72.10
53776;DHT22;44276;49.534;6.378;2022-08-01T12:18:40;25.60;69.30
53776;DHT22;44276;49.534;6.378;2022-08-01T12:21:09;25.70;68.00
53776;DHT22;44276;49.534;6.378;2022-08-01T12:23:37;25.70;68.10
53776;DHT22;44276;49.534;6.378;2022-08-01T12:26:06;25.80;67.70
53776;DHT22;44276;49.534;6.378;2022-08-01T12:28:55;26.20;65.60
53776;DHT22;44276;49.534;6.378;2022-08-01T12:31:31;26.30;63.50
53776;DHT22;44276;49.534;6.378;2022-08-01T12:34:27;26.50;62.80
53776;DHT22;44276;49.534;6.378;2022-08-01T12:36:58;27.10;58.80
53776;DHT22;44276;49.534;6.378;2022-08-01T12:39:31;27.70;51.40
53776;DHT22;44276;49.534;6.378;2022-08-01T12:42:00;28.10;49.70
53776;DHT22;44276;49.534;6.378;2022-08-01T12:44:30;28.40;47.30
53776;DHT22;44276;49.534;6.378;2022-08-01T12:46:59;28.80;45.20
53776;DHT22;44276;49.534;6.378;2022-08-01T12:49:31;28.70;43.80
53776;DHT22;44276;49.534;6.378;2022-08-01T12:52:00;28.60;44.50
53776;DHT22;44276;49.534;6.378;2022-08-01T12:54:29;28.50;44.70
53776;DHT22;44276;49.534;6.378;2022-08-01T12:56:58;28.70;43.00
53776;DHT22;44276;49.534;6.378;2022-08-01T12:59:27;28.90;42.90
53776;DHT22;44276;49.534;6.378;2022-08-01T13:02:08;29.00;40.50
53776;DHT22;44276;49.534;6.378;2022-08-01T13:04:49;29.20;40.50
53776;DHT22;44276;49.534;6.378;2022-08-01T13:07:18;29.30;39.60
53776;DHT22;44276;49.534;6.378;2022-08-01T13:09:49;29.10;39.90
53776;DHT22;44276;49.534;6.378;2022-08-01T13:12:18;29.00;40.60
53776;DHT22;44276;49.534;6.378;2022-08-01T13:14:48;28.90;41.30
53776;DHT22;44276;49.534;6.378;2022-08-01T13:17:30;28.90;41.10
53776;DHT22;44276;49.534;6.378;2022-08-01T13:19:59;28.90;40.40
53776;DHT22;44276;49.534;6.378;2022-08-01T13:22:32;28.30;42.60
53776;DHT22;44276;49.534;6.378;2022-08-01T13:25:11;28.30;42.70
53776;DHT22;44276;49.534;6.378;2022-08-01T13:27:42;28.30;42.60
53776;DHT22;44276;49.534;6.378;2022-08-01T13:30:22;28.20;42.20
53776;DHT22;44276;49.534;6.378;2022-08-01T13:32:58;28.60;41.50
53776;DHT22;44276;49.534;6.378;2022-08-01T13:35:27;28.90;41.10
53776;DHT22;44276;49.534;6.378;2022-08-01T13:37:55;29.00;40.70
53776;DHT22;44276;49.534;6.378;2022-08-01T13:40:24;28.60;40.60
53776;DHT22;44276;49.534;6.378;2022-08-01T13:42:54;28.20;41.50
53776;DHT22;44276;49.534;6.378;2022-08-01T13:45:24;28.00;42.10
53776;DHT22;44276;49.534;6.378;2022-08-01T13:47:53;28.20;43.80
53776;DHT22;44276;49.534;6.378;2022-08-01T13:50:38;28.00;43.00
53776;DHT22;44276;49.534;6.378;2022-08-01T13:53:07;28.20;42.10
53776;DHT22;44276;49.534;6.378;2022-08-01T13:55:35;27.80;42.90
53776;DHT22;44276;49.534;6.378;2022-08-01T13:58:05;27.50;44.50
53776;DHT22;44276;49.534;6.378;2022-08-01T14:00:35;27.40;45.50
53776;DHT22;44276;49.534;6.378;2022-08-01T14:03:04;27.40;46.40
53776;DHT22;44276;49.534;6.378;2022-08-01T14:05:32;27.30;46.90
53776;DHT22;44276;49.534;6.378;2022-08-01T14:08:00;27.40;46.80
53776;DHT22;44276;49.534;6.378;2022-08-01T14:10:30;27.50;45.10
53776;DHT22;44276;49.534;6.378;2022-08-01T14:12:58;27.40;45.10
53776;DHT22;44276;49.534;6.378;2022-08-01T14:15:27;27.30;45.40
53776;DHT22;44276;49.534;6.378;2022-08-01T14:18:07;27.30;44.80
53776;DHT22;44276;49.534;6.378;2022-08-01T14:20:37;27.20;45.60
53776;DHT22;44276;49.534;6.378;2022-08-01T14:23:06;26.90;48.10
53776;DHT22;44276;49.534;6.378;2022-08-01T14:25:35;26.60;48.90
53776;DHT22;44276;49.534;6.378;2022-08-01T14:28:25;26.50;50.80
53776;DHT22;44276;49.534;6.378;2022-08-01T14:30:55;26.30;52.00
53776;DHT22;44276;49.534;6.378;2022-08-01T14:33:25;26.20;53.20
53776;DHT22;44276;49.534;6.378;2022-08-01T14:35:54;26.40;53.60
53776;DHT22;44276;49.534;6.378;2022-08-01T14:38:42;26.50;53.50
53776;DHT22;44276;49.534;6.378;2022-08-01T14:41:12;26.50;53.50
53776;DHT22;44276;49.534;6.378;2022-08-01T14:43:41;26.30;53.30
53776;DHT22;44276;49.534;6.378;2022-08-01T14:46:09;26.40;54.40
53776;DHT22;44276;49.534;6.378;2022-08-01T14:48:41;26.60;55.50
53776;DHT22;44276;49.534;6.378;2022-08-01T14:51:09;26.80;52.40
53776;DHT22;44276;49.534;6.378;2022-08-01T14:53:37;27.00;52.20
53776;DHT22;44276;49.534;6.378;2022-08-01T14:56:12;27.50;50.00
53776;DHT22;44276;49.534;6.378;2022-08-01T14:58:40;27.70;47.90
53776;DHT22;44276;49.534;6.378;2022-08-01T15:01:09;28.00;46.20
53776;DHT22;44276;49.534;6.378;2022-08-01T15:03:37;27.90;45.70
53776;DHT22;44276;49.534;6.378;2022-08-01T15:06:07;27.80;47.40
53776;DHT22;44276;49.534;6.378;2022-08-01T15:08:37;28.10;46.50
53776;DHT22;44276;49.534;6.378;2022-08-01T15:11:05;28.00;45.00
53776;DHT22;44276;49.534;6.378;2022-08-01T15:13:35;27.80;45.60
53776;DHT22;44276;49.534;6.378;2022-08-01T15:16:08;27.70;46.00
53776;DHT22;44276;49.534;6.378;2022-08-01T15:18:38;27.40;48.50
53776;DHT22;44276;49.534;6.378;2022-08-01T15:21:09;27.20;49.20
53776;DHT22;44276;49.534;6.378;2022-08-01T15:23:58;27.10;49.40
53776;DHT22;44276;49.534;6.378;2022-08-01T15:26:26;27.00;51.70
53776;DHT22;44276;49.534;6.378;2022-08-01T15:28:56;26.90;51.40
53776;DHT22;44276;49.534;6.378;2022-08-01T15:31:24;26.40;54.60
53776;DHT22;44276;49.534;6.378;2022-08-01T15:33:53;26.20;58.90
53776;DHT22;44276;49.534;6.378;2022-08-01T15:36:23;26.00;59.30
53776;DHT22;44276;49.534;6.378;2022-08-01T15:38:52;25.80;60.90
53776;DHT22;44276;49.534;6.378;2022-08-01T15:41:20;25.60;64.70
53776;DHT22;44276;49.534;6.378;2022-08-01T15:43:48;25.50;67.70
53776;DHT22;44276;49.534;6.378;2022-08-01T15:46:21;25.50;67.90
53776;DHT22;44276;49.534;6.378;2022-08-01T15:48:50;25.40;70.00
53776;DHT22;44276;49.534;6.378;2022-08-01T15:51:18;25.40;71.30
53776;DHT22;44276;49.534;6.378;2022-08-01T15:53:47;25.40;70.40
53776;DHT22;44276;49.534;6.378;2022-08-01T15:56:16;25.30;72.50
53776;DHT22;44276;49.534;6.378;2022-08-01T15:58:44;25.30;71.50
53776;DHT22;44276;49.534;6.378;2022-08-01T16:01:12;25.30;71.70
53776;DHT22;44276;49.534;6.378;2022-08-01T16:03:40;25.30;71.90
53776;DHT22;44276;49.534;6.378;2022-08-01T16:06:08;25.30;71.00